sensor_id;sensor_type;location;lat;lon;timestamp;P1;durP1;ratioP1;P2;durP2;ratioP2
840;SDS011;406;48.566;13.450;2023-05-10T00:00:07;10.97;;;5.10;;
840;SDS011;406;48.566;13.450;2023-05-10T00:02:42;8.53;;;5.00;;
840;SDS011;406;48.566;13.450;2023-05-10T00:05:08;6.10;;;4.70;;
840;SDS011;406;48.566;13.450;2023-05-10T00:07:35;7.00;;;5.07;;
840;SDS011;406;48.566;13.450;2023-05-10T00:10:01;7.87;;;5.10;;
840;SDS011;406;48.566;13.450;2023-05-10T00:12:28;8.43;;;5.90;;
840;SDS011;406;48.566;13.450;2023-05-10T00:14:55;7.17;;;5.63;;
840;SDS011;406;48.566;13.450;2023-05-10T00:17:21;6.33;;;5.00;;
840;SDS011;406;48.566;13.450;2023-05-10T00:19:47;8.00;;;5.73;;
840;SDS011;406;48.566;13.450;2023-05-10T00:22:14;6.30;;;4.43;;
840;SDS011;406;48.566;13.450;2023-05-10T00:24:40;12.60;;;5.80;;
840;SDS011;406;48.566;13.450;2023-05-10T00:27:07;6.07;;;4.77;;
840;SDS011;406;48.566;13.450;2023-05-10T00:29:33;5.30;;;4.80;;
840;SDS011;406;48.566;13.450;2023-05-10T00:32:00;5.20;;;4.50;;
840;SDS011;406;48.566;13.450;2023-05-10T00:34:26;6.63;;;5.53;;
840;SDS011;406;48.566;13.450;2023-05-10T00:36:53;9.10;;;5.13;;
840;SDS011;406;48.566;13.450;2023-05-10T00:39:20;7.30;;;5.37;;
840;SDS011;406;48.566;13.450;2023-05-10T00:41:46;5.40;;;4.90;;
840;SDS011;406;48.566;13.450;2023-05-10T00:44:14;6.93;;;5.07;;
840;SDS011;406;48.566;13.450;2023-05-10T00:46:41;7.20;;;5.60;;
840;SDS011;406;48.566;13.450;2023-05-10T00:49:07;4.67;;;4.13;;
840;SDS011;406;48.566;13.450;2023-05-10T00:51:34;6.67;;;5.47;;
840;SDS011;406;48.566;13.450;2023-05-10T00:54:02;5.63;;;4.70;;
840;SDS011;406;48.566;13.450;2023-05-10T00:56:28;6.30;;;4.87;;
840;SDS011;406;48.566;13.450;2023-05-10T00:58:56;6.33;;;5.33;;
840;SDS011;406;48.566;13.450;2023-05-10T01:01:23;8.10;;;5.50;;
840;SDS011;406;48.566;13.450;2023-05-10T01:03:50;7.93;;;5.13;;
840;SDS011;406;48.566;13.450;2023-05-10T01:06:17;6.33;;;5.70;;
840;SDS011;406;48.566;13.450;2023-05-10T01:08:45;6.33;;;5.20;;
840;SDS011;406;48.566;13.450;2023-05-10T01:11:11;8.43;;;5.33;;
840;SDS011;406;48.566;13.450;2023-05-10T01:13:39;6.77;;;5.93;;
840;SDS011;406;48.566;13.450;2023-05-10T01:16:07;6.40;;;5.17;;
840;SDS011;406;48.566;13.450;2023-05-10T01:18:43;9.33;;;5.23;;
840;SDS011;406;48.566;13.450;2023-05-10T01:23:55;8.77;;;5.53;;
840;SDS011;406;48.566;13.450;2023-05-10T01:29:14;8.67;;;6.10;;
840;SDS011;406;48.566;13.450;2023-05-10T01:35:07;7.40;;;5.13;;
840;SDS011;406;48.566;13.450;2023-05-10T01:40:08;7.20;;;6.37;;
840;SDS011;406;48.566;13.450;2023-05-10T01:42:39;7.37;;;5.23;;
840;SDS011;406;48.566;13.450;2023-05-10T01:45:18;5.93;;;5.10;;
840;SDS011;406;48.566;13.450;2023-05-10T01:47:50;7.07;;;4.93;;
840;SDS011;406;48.566;13.450;2023-05-10T01:50:27;7.53;;;5.87;;
840;SDS011;406;48.566;13.450;2023-05-10T01:52:56;7.43;;;5.57;;
840;SDS011;406;48.566;13.450;2023-05-10T01:55:25;6.60;;;5.90;;
840;SDS011;406;48.566;13.450;2023-05-10T01:57:57;5.83;;;4.60;;
840;SDS011;406;48.566;13.450;2023-05-10T02:00:26;5.10;;;4.43;;
840;SDS011;406;48.566;13.450;2023-05-10T02:02:54;7.17;;;5.27;;
840;SDS011;406;48.566;13.450;2023-05-10T02:05:20;11.77;;;5.40;;
840;SDS011;406;48.566;13.450;2023-05-10T02:07:47;6.70;;;5.17;;
840;SDS011;406;48.566;13.450;2023-05-10T02:10:15;6.50;;;5.17;;
840;SDS011;406;48.566;13.450;2023-05-10T02:12:43;9.57;;;5.27;;
840;SDS011;406;48.566;13.450;2023-05-10T02:15:12;7.90;;;5.00;;
840;SDS011;406;48.566;13.450;2023-05-10T02:17:43;6.73;;;5.50;;
840;SDS011;406;48.566;13.450;2023-05-10T02:20:09;6.97;;;5.97;;
840;SDS011;406;48.566;13.450;2023-05-10T02:22:36;8.77;;;6.00;;
840;SDS011;406;48.566;13.450;2023-05-10T02:25:04;6.03;;;5.37;;
840;SDS011;406;48.566;13.450;2023-05-10T02:27:31;11.70;;;5.67;;
840;SDS011;406;48.566;13.450;2023-05-10T02:29:58;7.20;;;5.30;;
840;SDS011;406;48.566;13.450;2023-05-10T02:32:25;6.23;;;5.23;;
840;SDS011;406;48.566;13.450;2023-05-10T02:34:53;6.70;;;5.20;;
840;SDS011;406;48.566;13.450;2023-05-10T02:37:20;6.63;;;5.40;;
840;SDS011;406;48.566;13.450;2023-05-10T02:39:48;11.97;;;6.50;;
840;SDS011;406;48.566;13.450;2023-05-10T02:42:16;6.87;;;6.20;;
840;SDS011;406;48.566;13.450;2023-05-10T02:44:49;6.00;;;5.40;;
840;SDS011;406;48.566;13.450;2023-05-10T02:47:17;7.53;;;5.47;;
840;SDS011;406;48.566;13.450;2023-05-10T02:49:44;9.03;;;6.17;;
840;SDS011;406;48.566;13.450;2023-05-10T02:52:11;5.90;;;5.30;;
840;SDS011;406;48.566;13.450;2023-05-10T02:54:41;7.63;;;5.50;;
840;SDS011;406;48.566;13.450;2023-05-10T02:57:11;6.57;;;5.47;;
840;SDS011;406;48.566;13.450;2023-05-10T02:59:42;6.47;;;5.40;;
840;SDS011;406;48.566;13.450;2023-05-10T03:02:09;5.70;;;4.97;;
840;SDS011;406;48.566;13.450;2023-05-10T03:04:36;6.80;;;5.60;;
840;SDS011;406;48.566;13.450;2023-05-10T03:07:03;6.53;;;5.30;;
840;SDS011;406;48.566;13.450;2023-05-10T03:09:30;6.10;;;5.03;;
840;SDS011;406;48.566;13.450;2023-05-10T03:12:08;7.90;;;6.10;;
840;SDS011;406;48.566;13.450;2023-05-10T03:17:30;6.87;;;5.13;;
840;SDS011;406;48.566;13.450;2023-05-10T03:20:04;7.67;;;6.30;;
840;SDS011;406;48.566;13.450;2023-05-10T03:22:37;6.40;;;5.77;;
840;SDS011;406;48.566;13.450;2023-05-10T03:25:06;7.83;;;5.40;;
840;SDS011;406;48.566;13.450;2023-05-10T03:27:35;8.80;;;6.97;;
840;SDS011;406;48.566;13.450;2023-05-10T03:30:03;6.93;;;5.30;;
840;SDS011;406;48.566;13.450;2023-05-10T03:32:32;6.30;;;5.57;;
840;SDS011;406;48.566;13.450;2023-05-10T03:35:01;8.33;;;6.43;;
840;SDS011;406;48.566;13.450;2023-05-10T03:37:32;6.50;;;5.73;;
840;SDS011;406;48.566;13.450;2023-05-10T03:39:58;7.30;;;6.20;;
840;SDS011;406;48.566;13.450;2023-05-10T03:42:25;10.10;;;6.00;;
840;SDS011;406;48.566;13.450;2023-05-10T03:44:52;8.77;;;6.40;;
840;SDS011;406;48.566;13.450;2023-05-10T03:47:18;7.33;;;6.30;;
840;SDS011;406;48.566;13.450;2023-05-10T03:49:45;7.13;;;5.87;;
840;SDS011;406;48.566;13.450;2023-05-10T03:52:11;7.20;;;6.50;;
840;SDS011;406;48.566;13.450;2023-05-10T03:54:38;8.53;;;6.90;;
840;SDS011;406;48.566;13.450;2023-05-10T03:57:05;10.33;;;6.50;;
840;SDS011;406;48.566;13.450;2023-05-10T03:59:31;8.40;;;6.30;;
840;SDS011;406;48.566;13.450;2023-05-10T04:01:58;9.37;;;6.00;;
840;SDS011;406;48.566;13.450;2023-05-10T04:04:24;7.33;;;6.00;;
840;SDS011;406;48.566;13.450;2023-05-10T04:06:51;10.87;;;7.00;;
840;SDS011;406;48.566;13.450;2023-05-10T04:09:18;10.00;;;7.13;;
840;SDS011;406;48.566;13.450;2023-05-10T04:11:44;7.13;;;6.03;;
840;SDS011;406;48.566;13.450;2023-05-10T04:14:11;6.80;;;6.10;;
840;SDS011;406;48.566;13.450;2023-05-10T04:16:37;8.70;;;7.77;;
840;SDS011;406;48.566;13.450;2023-05-10T04:19:04;9.00;;;6.97;;
840;SDS011;406;48.566;13.450;2023-05-10T04:21:30;9.00;;;6.27;;
840;SDS011;406;48.566;13.450;2023-05-10T04:23:57;7.10;;;5.70;;
840;SDS011;406;48.566;13.450;2023-05-10T04:26:23;7.57;;;6.70;;
840;SDS011;406;48.566;13.450;2023-05-10T04:28:51;7.90;;;6.63;;
840;SDS011;406;48.566;13.450;2023-05-10T04:31:18;9.30;;;6.60;;
840;SDS011;406;48.566;13.450;2023-05-10T04:33:44;8.67;;;6.33;;
840;SDS011;406;48.566;13.450;2023-05-10T04:36:11;12.17;;;7.80;;
840;SDS011;406;48.566;13.450;2023-05-10T04:38:37;9.10;;;7.13;;
840;SDS011;406;48.566;13.450;2023-05-10T04:41:07;8.17;;;7.27;;
840;SDS011;406;48.566;13.450;2023-05-10T04:43:34;10.93;;;7.10;;
840;SDS011;406;48.566;13.450;2023-05-10T04:46:01;10.23;;;7.00;;
840;SDS011;406;48.566;13.450;2023-05-10T04:48:28;7.23;;;6.53;;
840;SDS011;406;48.566;13.450;2023-05-10T04:50:55;9.80;;;6.27;;
840;SDS011;406;48.566;13.450;2023-05-10T04:53:22;9.67;;;7.67;;
840;SDS011;406;48.566;13.450;2023-05-10T04:55:49;10.57;;;9.07;;
840;SDS011;406;48.566;13.450;2023-05-10T04:58:15;9.30;;;7.97;;
840;SDS011;406;48.566;13.450;2023-05-10T05:00:42;9.67;;;7.57;;
840;SDS011;406;48.566;13.450;2023-05-10T05:03:08;9.33;;;7.30;;
840;SDS011;406;48.566;13.450;2023-05-10T05:05:35;8.47;;;6.77;;
840;SDS011;406;48.566;13.450;2023-05-10T05:08:02;9.83;;;7.17;;
840;SDS011;406;48.566;13.450;2023-05-10T05:10:29;14.50;;;7.23;;
840;SDS011;406;48.566;13.450;2023-05-10T05:12:56;8.03;;;7.17;;
840;SDS011;406;48.566;13.450;2023-05-10T05:15:22;9.50;;;8.00;;
840;SDS011;406;48.566;13.450;2023-05-10T05:17:49;9.80;;;7.63;;
840;SDS011;406;48.566;13.450;2023-05-10T05:20:15;10.83;;;7.60;;
840;SDS011;406;48.566;13.450;2023-05-10T05:22:42;10.87;;;8.37;;
840;SDS011;406;48.566;13.450;2023-05-10T05:25:09;8.40;;;6.70;;
840;SDS011;406;48.566;13.450;2023-05-10T05:27:35;10.97;;;7.93;;
840;SDS011;406;48.566;13.450;2023-05-10T05:30:02;9.60;;;8.50;;
840;SDS011;406;48.566;13.450;2023-05-10T05:32:29;9.63;;;8.13;;
840;SDS011;406;48.566;13.450;2023-05-10T05:34:56;13.20;;;8.57;;
840;SDS011;406;48.566;13.450;2023-05-10T05:37:23;9.07;;;8.03;;
840;SDS011;406;48.566;13.450;2023-05-10T05:39:50;12.17;;;8.70;;
840;SDS011;406;48.566;13.450;2023-05-10T05:42:17;9.07;;;8.17;;
840;SDS011;406;48.566;13.450;2023-05-10T05:44:47;10.43;;;8.17;;
840;SDS011;406;48.566;13.450;2023-05-10T05:47:13;9.63;;;8.63;;
840;SDS011;406;48.566;13.450;2023-05-10T05:49:40;11.40;;;8.70;;
840;SDS011;406;48.566;13.450;2023-05-10T05:52:06;11.17;;;7.47;;
840;SDS011;406;48.566;13.450;2023-05-10T05:54:33;10.37;;;8.57;;
840;SDS011;406;48.566;13.450;2023-05-10T05:56:59;12.43;;;9.30;;
840;SDS011;406;48.566;13.450;2023-05-10T05:59:27;11.83;;;8.77;;
840;SDS011;406;48.566;13.450;2023-05-10T06:01:53;9.87;;;8.60;;
840;SDS011;406;48.566;13.450;2023-05-10T06:04:20;9.90;;;8.87;;
840;SDS011;406;48.566;13.450;2023-05-10T06:06:46;11.83;;;10.50;;
840;SDS011;406;48.566;13.450;2023-05-10T06:09:13;10.80;;;8.60;;
840;SDS011;406;48.566;13.450;2023-05-10T06:11:39;13.93;;;10.57;;
840;SDS011;406;48.566;13.450;2023-05-10T06:14:06;12.67;;;9.40;;
840;SDS011;406;48.566;13.450;2023-05-10T06:16:34;12.37;;;9.00;;
840;SDS011;406;48.566;13.450;2023-05-10T06:19:01;13.13;;;9.83;;
840;SDS011;406;48.566;13.450;2023-05-10T06:21:28;11.20;;;9.07;;
840;SDS011;406;48.566;13.450;2023-05-10T06:23:55;11.93;;;9.77;;
840;SDS011;406;48.566;13.450;2023-05-10T06:26:21;12.10;;;10.00;;
840;SDS011;406;48.566;13.450;2023-05-10T06:28:48;10.97;;;9.37;;
840;SDS011;406;48.566;13.450;2023-05-10T06:31:14;11.73;;;10.53;;
840;SDS011;406;48.566;13.450;2023-05-10T06:33:41;12.67;;;11.03;;
840;SDS011;406;48.566;13.450;2023-05-10T06:36:08;11.90;;;10.63;;
840;SDS011;406;48.566;13.450;2023-05-10T06:38:34;12.00;;;9.67;;
840;SDS011;406;48.566;13.450;2023-05-10T06:41:01;12.90;;;9.63;;
840;SDS011;406;48.566;13.450;2023-05-10T06:43:27;10.77;;;9.63;;
840;SDS011;406;48.566;13.450;2023-05-10T06:45:55;10.80;;;9.23;;
840;SDS011;406;48.566;13.450;2023-05-10T06:48:22;10.73;;;9.03;;
840;SDS011;406;48.566;13.450;2023-05-10T06:50:49;11.23;;;9.87;;
840;SDS011;406;48.566;13.450;2023-05-10T06:53:15;11.83;;;9.80;;
840;SDS011;406;48.566;13.450;2023-05-10T06:55:42;14.37;;;11.33;;
840;SDS011;406;48.566;13.450;2023-05-10T06:58:09;11.80;;;10.57;;
840;SDS011;406;48.566;13.450;2023-05-10T07:00:36;12.23;;;9.73;;
840;SDS011;406;48.566;13.450;2023-05-10T07:03:06;13.90;;;9.80;;
840;SDS011;406;48.566;13.450;2023-05-10T07:05:33;11.80;;;9.93;;
840;SDS011;406;48.566;13.450;2023-05-10T07:08:00;10.60;;;9.47;;
840;SDS011;406;48.566;13.450;2023-05-10T07:10:27;11.80;;;9.83;;
840;SDS011;406;48.566;13.450;2023-05-10T07:12:53;13.50;;;9.97;;
840;SDS011;406;48.566;13.450;2023-05-10T07:15:20;12.27;;;9.50;;
840;SDS011;406;48.566;13.450;2023-05-10T07:17:46;12.80;;;9.17;;
840;SDS011;406;48.566;13.450;2023-05-10T07:20:13;11.57;;;9.10;;
840;SDS011;406;48.566;13.450;2023-05-10T07:22:39;9.40;;;8.30;;
840;SDS011;406;48.566;13.450;2023-05-10T07:25:06;12.00;;;9.87;;
840;SDS011;406;48.566;13.450;2023-05-10T07:27:33;10.80;;;9.70;;
840;SDS011;406;48.566;13.450;2023-05-10T07:29:59;14.33;;;10.10;;
840;SDS011;406;48.566;13.450;2023-05-10T07:32:28;12.47;;;10.90;;
840;SDS011;406;48.566;13.450;2023-05-10T07:34:55;12.70;;;10.77;;
840;SDS011;406;48.566;13.450;2023-05-10T07:37:21;12.13;;;10.67;;
840;SDS011;406;48.566;13.450;2023-05-10T07:39:48;10.67;;;9.53;;
840;SDS011;406;48.566;13.450;2023-05-10T07:42:14;11.53;;;10.33;;
840;SDS011;406;48.566;13.450;2023-05-10T07:44:41;10.70;;;9.30;;
840;SDS011;406;48.566;13.450;2023-05-10T07:47:07;11.13;;;9.53;;
840;SDS011;406;48.566;13.450;2023-05-10T07:49:34;13.20;;;10.30;;
840;SDS011;406;48.566;13.450;2023-05-10T07:52:02;10.67;;;9.53;;
840;SDS011;406;48.566;13.450;2023-05-10T07:54:29;12.50;;;10.20;;
840;SDS011;406;48.566;13.450;2023-05-10T07:56:55;12.20;;;10.00;;
840;SDS011;406;48.566;13.450;2023-05-10T07:59:22;12.70;;;10.40;;
840;SDS011;406;48.566;13.450;2023-05-10T08:01:48;11.13;;;10.00;;
840;SDS011;406;48.566;13.450;2023-05-10T08:04:15;11.33;;;9.03;;
840;SDS011;406;48.566;13.450;2023-05-10T08:06:42;10.40;;;9.30;;
840;SDS011;406;48.566;13.450;2023-05-10T08:09:08;13.77;;;9.10;;
840;SDS011;406;48.566;13.450;2023-05-10T08:11:35;11.53;;;9.90;;
840;SDS011;406;48.566;13.450;2023-05-10T08:14:01;10.43;;;9.27;;
840;SDS011;406;48.566;13.450;2023-05-10T08:16:28;10.07;;;8.90;;
840;SDS011;406;48.566;13.450;2023-05-10T08:18:55;10.97;;;9.87;;
840;SDS011;406;48.566;13.450;2023-05-10T08:21:21;13.70;;;10.03;;
840;SDS011;406;48.566;13.450;2023-05-10T08:23:48;9.60;;;8.23;;
840;SDS011;406;48.566;13.450;2023-05-10T08:26:15;10.10;;;9.10;;
840;SDS011;406;48.566;13.450;2023-05-10T08:28:41;16.67;;;13.37;;
840;SDS011;406;48.566;13.450;2023-05-10T08:31:08;10.60;;;9.50;;
840;SDS011;406;48.566;13.450;2023-05-10T08:33:34;11.10;;;9.97;;
840;SDS011;406;48.566;13.450;2023-05-10T08:36:01;11.80;;;9.07;;
840;SDS011;406;48.566;13.450;2023-05-10T08:38:27;10.37;;;9.10;;
840;SDS011;406;48.566;13.450;2023-05-10T08:40:54;9.73;;;8.73;;
840;SDS011;406;48.566;13.450;2023-05-10T08:43:26;10.07;;;9.10;;
840;SDS011;406;48.566;13.450;2023-05-10T08:45:54;10.73;;;9.53;;
840;SDS011;406;48.566;13.450;2023-05-10T08:48:23;11.10;;;10.00;;
840;SDS011;406;48.566;13.450;2023-05-10T08:50:52;12.03;;;10.80;;
840;SDS011;406;48.566;13.450;2023-05-10T08:53:21;11.30;;;9.20;;
840;SDS011;406;48.566;13.450;2023-05-10T08:55:52;10.97;;;9.83;;
840;SDS011;406;48.566;13.450;2023-05-10T08:58:19;10.60;;;9.43;;
840;SDS011;406;48.566;13.450;2023-05-10T09:00:46;12.07;;;9.77;;
840;SDS011;406;48.566;13.450;2023-05-10T09:03:14;11.23;;;9.63;;
840;SDS011;406;48.566;13.450;2023-05-10T09:05:41;11.30;;;9.40;;
840;SDS011;406;48.566;13.450;2023-05-10T09:08:08;10.60;;;9.40;;
840;SDS011;406;48.566;13.450;2023-05-10T09:10:34;13.07;;;10.67;;
840;SDS011;406;48.566;13.450;2023-05-10T09:13:01;11.30;;;9.47;;
840;SDS011;406;48.566;13.450;2023-05-10T09:15:28;13.47;;;9.40;;
840;SDS011;406;48.566;13.450;2023-05-10T09:17:54;11.47;;;10.27;;
840;SDS011;406;48.566;13.450;2023-05-10T09:20:22;12.17;;;9.50;;
840;SDS011;406;48.566;13.450;2023-05-10T09:22:48;11.77;;;10.27;;
840;SDS011;406;48.566;13.450;2023-05-10T09:25:15;10.53;;;9.60;;
840;SDS011;406;48.566;13.450;2023-05-10T09:27:46;10.77;;;9.67;;
840;SDS011;406;48.566;13.450;2023-05-10T09:30:18;10.20;;;8.90;;
840;SDS011;406;48.566;13.450;2023-05-10T09:32:50;12.40;;;9.90;;
840;SDS011;406;48.566;13.450;2023-05-10T09:35:18;10.13;;;9.03;;
840;SDS011;406;48.566;13.450;2023-05-10T09:37:46;11.70;;;9.90;;
840;SDS011;406;48.566;13.450;2023-05-10T09:40:23;10.83;;;9.70;;
840;SDS011;406;48.566;13.450;2023-05-10T09:42:57;11.00;;;9.20;;
840;SDS011;406;48.566;13.450;2023-05-10T09:45:24;9.83;;;8.67;;
840;SDS011;406;48.566;13.450;2023-05-10T09:47:52;11.23;;;9.00;;
840;SDS011;406;48.566;13.450;2023-05-10T09:50:19;10.67;;;8.80;;
840;SDS011;406;48.566;13.450;2023-05-10T09:55:14;11.43;;;9.73;;
840;SDS011;406;48.566;13.450;2023-05-10T09:57:41;10.33;;;9.33;;
840;SDS011;406;48.566;13.450;2023-05-10T10:00:08;14.83;;;9.13;;
840;SDS011;406;48.566;13.450;2023-05-10T10:02:39;9.77;;;8.77;;
840;SDS011;406;48.566;13.450;2023-05-10T10:05:06;10.40;;;8.37;;
840;SDS011;406;48.566;13.450;2023-05-10T10:07:33;10.70;;;9.03;;
840;SDS011;406;48.566;13.450;2023-05-10T10:10:00;9.23;;;7.77;;
840;SDS011;406;48.566;13.450;2023-05-10T10:12:27;8.80;;;7.90;;
840;SDS011;406;48.566;13.450;2023-05-10T10:14:54;8.87;;;7.97;;
840;SDS011;406;48.566;13.450;2023-05-10T10:17:21;9.67;;;7.77;;
840;SDS011;406;48.566;13.450;2023-05-10T10:19:47;7.07;;;6.20;;
840;SDS011;406;48.566;13.450;2023-05-10T10:22:14;7.97;;;6.40;;
840;SDS011;406;48.566;13.450;2023-05-10T10:24:41;7.50;;;6.70;;
840;SDS011;406;48.566;13.450;2023-05-10T10:27:10;6.93;;;6.27;;
840;SDS011;406;48.566;13.450;2023-05-10T10:30:13;6.53;;;5.27;;
840;SDS011;406;48.566;13.450;2023-05-10T10:35:53;5.20;;;4.63;;
840;SDS011;406;48.566;13.450;2023-05-10T10:38:20;5.60;;;4.17;;
840;SDS011;406;48.566;13.450;2023-05-10T10:40:48;5.47;;;4.97;;
840;SDS011;406;48.566;13.450;2023-05-10T10:43:21;4.90;;;4.47;;
840;SDS011;406;48.566;13.450;2023-05-10T10:48:35;5.43;;;4.90;;
840;SDS011;406;48.566;13.450;2023-05-10T10:51:02;5.87;;;5.20;;
840;SDS011;406;48.566;13.450;2023-05-10T10:53:29;6.10;;;5.60;;
840;SDS011;406;48.566;13.450;2023-05-10T10:56:02;6.77;;;6.10;;
840;SDS011;406;48.566;13.450;2023-05-10T10:58:33;6.80;;;5.53;;
840;SDS011;406;48.566;13.450;2023-05-10T11:01:16;10.03;;;5.30;;
840;SDS011;406;48.566;13.450;2023-05-10T11:06:35;6.43;;;5.83;;
840;SDS011;406;48.566;13.450;2023-05-10T11:09:06;5.53;;;5.03;;
840;SDS011;406;48.566;13.450;2023-05-10T11:11:36;7.73;;;5.97;;
840;SDS011;406;48.566;13.450;2023-05-10T11:14:15;6.70;;;5.60;;
840;SDS011;406;48.566;13.450;2023-05-10T11:16:46;5.53;;;4.93;;
840;SDS011;406;48.566;13.450;2023-05-10T11:19:13;6.57;;;5.40;;
840;SDS011;406;48.566;13.450;2023-05-10T11:21:51;6.07;;;5.47;;
840;SDS011;406;48.566;13.450;2023-05-10T11:24:39;7.53;;;5.63;;
840;SDS011;406;48.566;13.450;2023-05-10T11:27:05;5.93;;;5.20;;
840;SDS011;406;48.566;13.450;2023-05-10T11:29:32;6.70;;;6.00;;
840;SDS011;406;48.566;13.450;2023-05-10T11:31:58;5.40;;;4.90;;
840;SDS011;406;48.566;13.450;2023-05-10T11:34:29;7.97;;;6.00;;
840;SDS011;406;48.566;13.450;2023-05-10T11:36:57;6.10;;;5.50;;
840;SDS011;406;48.566;13.450;2023-05-10T11:39:30;5.60;;;5.10;;
840;SDS011;406;48.566;13.450;2023-05-10T11:41:59;6.30;;;5.13;;
840;SDS011;406;48.566;13.450;2023-05-10T11:44:29;4.80;;;4.33;;
840;SDS011;406;48.566;13.450;2023-05-10T11:46:58;7.87;;;5.67;;
840;SDS011;406;48.566;13.450;2023-05-10T11:49:25;6.90;;;5.33;;
840;SDS011;406;48.566;13.450;2023-05-10T11:51:52;6.13;;;5.40;;
840;SDS011;406;48.566;13.450;2023-05-10T11:54:18;6.77;;;5.53;;
840;SDS011;406;48.566;13.450;2023-05-10T11:56:45;5.80;;;5.20;;
840;SDS011;406;48.566;13.450;2023-05-10T11:59:13;7.03;;;5.10;;
840;SDS011;406;48.566;13.450;2023-05-10T12:01:41;5.63;;;5.10;;
840;SDS011;406;48.566;13.450;2023-05-10T12:04:07;7.43;;;5.37;;
840;SDS011;406;48.566;13.450;2023-05-10T12:06:37;6.30;;;5.10;;
840;SDS011;406;48.566;13.450;2023-05-10T12:09:06;6.00;;;5.50;;
840;SDS011;406;48.566;13.450;2023-05-10T12:11:36;5.77;;;5.27;;
840;SDS011;406;48.566;13.450;2023-05-10T12:14:09;4.87;;;4.47;;
840;SDS011;406;48.566;13.450;2023-05-10T12:16:36;6.43;;;5.83;;
840;SDS011;406;48.566;13.450;2023-05-10T12:19:03;5.90;;;4.73;;
840;SDS011;406;48.566;13.450;2023-05-10T12:21:30;4.77;;;4.27;;
840;SDS011;406;48.566;13.450;2023-05-10T12:24:00;4.93;;;4.43;;
840;SDS011;406;48.566;13.450;2023-05-10T12:26:28;5.63;;;5.00;;
840;SDS011;406;48.566;13.450;2023-05-10T12:29:02;6.83;;;4.73;;
840;SDS011;406;48.566;13.450;2023-05-10T12:34:34;5.00;;;4.27;;
840;SDS011;406;48.566;13.450;2023-05-10T12:37:02;5.07;;;4.40;;
840;SDS011;406;48.566;13.450;2023-05-10T12:39:42;6.73;;;5.30;;
840;SDS011;406;48.566;13.450;2023-05-10T12:42:09;5.50;;;4.73;;
840;SDS011;406;48.566;13.450;2023-05-10T12:44:36;4.20;;;3.80;;
840;SDS011;406;48.566;13.450;2023-05-10T12:47:03;4.80;;;4.30;;
840;SDS011;406;48.566;13.450;2023-05-10T12:49:29;7.97;;;5.30;;
840;SDS011;406;48.566;13.450;2023-05-10T12:51:56;4.57;;;4.00;;
840;SDS011;406;48.566;13.450;2023-05-10T12:54:22;5.70;;;4.27;;
840;SDS011;406;48.566;13.450;2023-05-10T12:56:49;4.10;;;3.70;;
840;SDS011;406;48.566;13.450;2023-05-10T12:59:15;4.13;;;3.73;;
840;SDS011;406;48.566;13.450;2023-05-10T13:01:41;5.40;;;3.93;;
840;SDS011;406;48.566;13.450;2023-05-10T13:04:08;4.87;;;4.37;;
840;SDS011;406;48.566;13.450;2023-05-10T13:06:35;5.87;;;5.17;;
840;SDS011;406;48.566;13.450;2023-05-10T13:09:01;4.47;;;4.07;;
840;SDS011;406;48.566;13.450;2023-05-10T13:11:28;5.03;;;3.90;;
840;SDS011;406;48.566;13.450;2023-05-10T13:13:54;4.80;;;3.83;;
840;SDS011;406;48.566;13.450;2023-05-10T13:16:21;5.40;;;4.17;;
840;SDS011;406;48.566;13.450;2023-05-10T13:18:48;4.80;;;4.03;;
840;SDS011;406;48.566;13.450;2023-05-10T13:21:15;4.87;;;3.47;;
840;SDS011;406;48.566;13.450;2023-05-10T13:23:42;4.63;;;4.10;;
840;SDS011;406;48.566;13.450;2023-05-10T13:26:09;4.10;;;3.67;;
840;SDS011;406;48.566;13.450;2023-05-10T13:28:35;4.57;;;3.50;;
840;SDS011;406;48.566;13.450;2023-05-10T13:31:02;4.77;;;4.00;;
840;SDS011;406;48.566;13.450;2023-05-10T13:33:28;5.03;;;3.83;;
840;SDS011;406;48.566;13.450;2023-05-10T13:35:55;4.43;;;4.03;;
840;SDS011;406;48.566;13.450;2023-05-10T13:38:21;4.60;;;3.90;;
840;SDS011;406;48.566;13.450;2023-05-10T13:40:48;4.53;;;4.13;;
840;SDS011;406;48.566;13.450;2023-05-10T13:43:18;5.50;;;5.00;;
840;SDS011;406;48.566;13.450;2023-05-10T13:45:45;4.07;;;3.67;;
840;SDS011;406;48.566;13.450;2023-05-10T13:48:11;4.90;;;4.50;;
840;SDS011;406;48.566;13.450;2023-05-10T13:50:38;5.10;;;4.60;;
840;SDS011;406;48.566;13.450;2023-05-10T13:53:04;6.50;;;3.40;;
840;SDS011;406;48.566;13.450;2023-05-10T13:55:31;3.87;;;3.50;;
840;SDS011;406;48.566;13.450;2023-05-10T13:57:58;3.57;;;3.00;;
840;SDS011;406;48.566;13.450;2023-05-10T14:00:24;3.90;;;3.40;;
840;SDS011;406;48.566;13.450;2023-05-10T14:02:51;3.23;;;2.93;;
840;SDS011;406;48.566;13.450;2023-05-10T14:05:17;3.80;;;2.40;;
840;SDS011;406;48.566;13.450;2023-05-10T14:07:50;3.77;;;3.47;;
840;SDS011;406;48.566;13.450;2023-05-10T14:10:17;3.87;;;2.83;;
840;SDS011;406;48.566;13.450;2023-05-10T14:12:43;8.23;;;3.10;;
840;SDS011;406;48.566;13.450;2023-05-10T14:15:10;4.03;;;2.90;;
840;SDS011;406;48.566;13.450;2023-05-10T14:17:37;3.47;;;2.50;;
840;SDS011;406;48.566;13.450;2023-05-10T14:20:04;3.20;;;3.00;;
840;SDS011;406;48.566;13.450;2023-05-10T14:22:31;2.63;;;2.40;;
840;SDS011;406;48.566;13.450;2023-05-10T14:24:58;3.40;;;3.00;;
840;SDS011;406;48.566;13.450;2023-05-10T14:27:24;3.07;;;2.77;;
840;SDS011;406;48.566;13.450;2023-05-10T14:29:51;3.00;;;2.70;;
840;SDS011;406;48.566;13.450;2023-05-10T14:32:17;2.83;;;2.63;;
840;SDS011;406;48.566;13.450;2023-05-10T14:34:44;2.47;;;2.23;;
840;SDS011;406;48.566;13.450;2023-05-10T14:37:11;2.90;;;2.60;;
840;SDS011;406;48.566;13.450;2023-05-10T14:39:37;3.00;;;2.70;;
840;SDS011;406;48.566;13.450;2023-05-10T14:42:04;3.43;;;2.93;;
840;SDS011;406;48.566;13.450;2023-05-10T14:44:30;5.00;;;3.37;;
840;SDS011;406;48.566;13.450;2023-05-10T14:46:57;3.03;;;2.67;;
840;SDS011;406;48.566;13.450;2023-05-10T14:49:24;3.10;;;2.67;;
840;SDS011;406;48.566;13.450;2023-05-10T14:51:51;3.60;;;2.87;;
840;SDS011;406;48.566;13.450;2023-05-10T14:54:18;3.17;;;2.87;;
840;SDS011;406;48.566;13.450;2023-05-10T14:56:44;3.10;;;2.70;;
840;SDS011;406;48.566;13.450;2023-05-10T14:59:11;4.10;;;3.37;;
840;SDS011;406;48.566;13.450;2023-05-10T15:01:38;3.57;;;3.27;;
840;SDS011;406;48.566;13.450;2023-05-10T15:04:07;3.60;;;3.30;;
840;SDS011;406;48.566;13.450;2023-05-10T15:06:34;3.50;;;2.93;;
840;SDS011;406;48.566;13.450;2023-05-10T15:09:01;4.57;;;4.17;;
840;SDS011;406;48.566;13.450;2023-05-10T15:11:29;4.40;;;3.87;;
840;SDS011;406;48.566;13.450;2023-05-10T15:13:56;4.97;;;3.50;;
840;SDS011;406;48.566;13.450;2023-05-10T15:16:22;3.60;;;3.30;;
840;SDS011;406;48.566;13.450;2023-05-10T15:18:49;5.97;;;3.53;;
840;SDS011;406;48.566;13.450;2023-05-10T15:21:15;4.40;;;3.23;;
840;SDS011;406;48.566;13.450;2023-05-10T15:23:42;3.63;;;3.33;;
840;SDS011;406;48.566;13.450;2023-05-10T15:26:08;9.00;;;3.23;;
840;SDS011;406;48.566;13.450;2023-05-10T15:28:34;3.77;;;3.43;;
840;SDS011;406;48.566;13.450;2023-05-10T15:31:01;3.97;;;3.33;;
840;SDS011;406;48.566;13.450;2023-05-10T15:33:28;4.40;;;3.50;;
840;SDS011;406;48.566;13.450;2023-05-10T15:35:54;5.43;;;4.13;;
840;SDS011;406;48.566;13.450;2023-05-10T15:38:21;4.10;;;3.60;;
840;SDS011;406;48.566;13.450;2023-05-10T15:40:47;3.57;;;3.23;;
840;SDS011;406;48.566;13.450;2023-05-10T15:43:14;4.07;;;3.67;;
840;SDS011;406;48.566;13.450;2023-05-10T15:45:41;3.57;;;3.00;;
840;SDS011;406;48.566;13.450;2023-05-10T15:48:07;3.43;;;3.13;;
840;SDS011;406;48.566;13.450;2023-05-10T15:50:34;3.77;;;3.40;;
840;SDS011;406;48.566;13.450;2023-05-10T15:53:00;4.60;;;4.17;;
840;SDS011;406;48.566;13.450;2023-05-10T15:55:27;3.67;;;3.30;;